POE9000 SBSJ-TBPB
Flight info
| Callsign | POE9000 |
|---|---|
| Flight time | N/A |
| Altitude | 38000 |
| Route | VUSM3A GERKA UZ26 ISMOB UZ26 IBGAM UL576 NISKI UL576 TRAPP UA555 BGI |
| Aircraft | E195/M-SDE3GILORVW/S |
Departure
| Time | 2026-05-05 23:01 |
|---|---|
| Airport | Professor Urbano Ernesto Stumpf Airport (SBSJ) |
Arrival
| Time | N/A |
|---|---|
| Airport | Grantley Adams International Airport (TBPB) |
| Time | Latitude | Longitude | Altitude | Speed | Heading |
|---|---|---|---|---|---|
| 2026-05-05 22:27 | -23.23280 | -45.86183 | 2128 ft | 0 kts | 45° |
| 2026-05-05 22:51 | -23.23278 | -45.86181 | 2137 ft | 1 kts | 45° |
| 2026-05-05 22:51 | -23.23274 | -45.86177 | 2137 ft | 1 kts | 50° |
| 2026-05-05 22:51 | -23.23265 | -45.86165 | 2136 ft | 2 kts | 51° |
| 2026-05-05 22:52 | -23.23247 | -45.86141 | 2137 ft | 5 kts | 47° |
| 2026-05-05 22:52 | -23.23214 | -45.86104 | 2137 ft | 7 kts | 46° |
| 2026-05-05 22:52 | -23.23169 | -45.86055 | 2137 ft | 10 kts | 45° |
| 2026-05-05 22:52 | -23.23112 | -45.85992 | 2137 ft | 12 kts | 46° |
| 2026-05-05 22:53 | -23.23042 | -45.85918 | 2137 ft | 15 kts | 43° |
| 2026-05-05 22:53 | -23.22949 | -45.85880 | 2137 ft | 16 kts | 325° |
| 2026-05-05 22:53 | -23.22874 | -45.85959 | 2137 ft | 14 kts | 313° |
| 2026-05-05 22:53 | -23.22799 | -45.86041 | 2137 ft | 15 kts | 315° |
| 2026-05-05 22:54 | -23.22736 | -45.86108 | 2137 ft | 9 kts | 315° |
| 2026-05-05 22:54 | -23.22686 | -45.86164 | 2137 ft | 10 kts | 314° |
| 2026-05-05 22:54 | -23.22632 | -45.86225 | 2137 ft | 11 kts | 322° |
| 2026-05-05 22:54 | -23.22572 | -45.86286 | 2137 ft | 12 kts | 315° |
| 2026-05-05 22:55 | -23.22510 | -45.86355 | 2137 ft | 13 kts | 314° |
| 2026-05-05 22:55 | -23.22443 | -45.86426 | 2137 ft | 13 kts | 316° |
| 2026-05-05 22:55 | -23.22373 | -45.86500 | 2137 ft | 14 kts | 315° |
| 2026-05-05 22:55 | -23.22324 | -45.86554 | 2137 ft | 15 kts | 315° |
| 2026-05-05 22:56 | -23.22248 | -45.86639 | 2136 ft | 16 kts | 313° |
| 2026-05-05 22:56 | -23.22166 | -45.86724 | 2137 ft | 16 kts | 316° |
| 2026-05-05 22:56 | -23.22090 | -45.86823 | 2136 ft | 17 kts | 304° |
| 2026-05-05 22:56 | -23.22021 | -45.86935 | 2136 ft | 18 kts | 304° |
| 2026-05-05 22:57 | -23.21946 | -45.87050 | 2136 ft | 18 kts | 305° |
| 2026-05-05 22:57 | -23.21925 | -45.87130 | 2136 ft | 8 kts | 240° |
| 2026-05-05 22:57 | -23.21963 | -45.87174 | 2136 ft | 4 kts | 221° |
| 2026-05-05 22:57 | -23.21990 | -45.87167 | 2136 ft | 4 kts | 141° |
| 2026-05-05 22:58 | -23.21997 | -45.87160 | 2136 ft | 0 kts | 136° |
| 2026-05-05 22:59 | -23.21997 | -45.87159 | 2136 ft | 0 kts | 136° |
| 2026-05-05 23:00 | -23.22486 | -45.86630 | 2137 ft | 114 kts | 135° |
| 2026-05-05 23:00 | -23.23186 | -45.85875 | 2138 ft | 166 kts | 134° |
| 2026-05-05 23:00 | -23.24041 | -45.84960 | 2491 ft | 179 kts | 135° |
| 2026-05-05 23:01 | -23.24947 | -45.83920 | 2904 ft | 200 kts | 132° |
| 2026-05-05 23:01 | -23.25944 | -45.82774 | 3481 ft | 215 kts | 126° |
| 2026-05-05 23:01 | -23.26438 | -45.81217 | 3959 ft | 232 kts | 85° |
| 2026-05-05 23:01 | -23.25828 | -45.79589 | 4523 ft | 246 kts | 47° |
| 2026-05-05 23:02 | -23.24324 | -45.78693 | 5249 ft | 255 kts | 12° |
| 2026-05-05 23:02 | -23.22533 | -45.78389 | 5839 ft | 264 kts | 12° |
| 2026-05-05 23:02 | -23.20700 | -45.77956 | 6019 ft | 276 kts | 15° |
| 2026-05-05 23:02 | -23.18825 | -45.77425 | 6037 ft | 278 kts | 17° |
| 2026-05-05 23:03 | -23.16982 | -45.76863 | 6022 ft | 268 kts | 18° |
| 2026-05-05 23:03 | -23.15246 | -45.76315 | 6016 ft | 254 kts | 18° |
| 2026-05-05 23:03 | -23.13480 | -45.75753 | 6052 ft | 273 kts | 15° |
| 2026-05-05 23:03 | -23.11582 | -45.75792 | 6060 ft | 280 kts | 342° |
| 2026-05-05 23:04 | -23.09916 | -45.77045 | 6435 ft | 300 kts | 314° |
| 2026-05-05 23:04 | -23.08490 | -45.78673 | 7343 ft | 300 kts | 315° |
| 2026-05-05 23:04 | -23.07059 | -45.80283 | 8374 ft | 296 kts | 315° |
| 2026-05-05 23:04 | -23.05652 | -45.81856 | 9311 ft | 295 kts | 315° |
| 2026-05-05 23:05 | -23.04218 | -45.83455 | 10178 ft | 297 kts | 315° |
| 2026-05-05 23:05 | -23.02823 | -45.85008 | 11301 ft | 273 kts | 314° |
| 2026-05-05 23:05 | -23.01520 | -45.86457 | 11212 ft | 264 kts | 315° |
| 2026-05-05 23:05 | -23.00180 | -45.87946 | 11313 ft | 291 kts | 315° |
| 2026-05-05 23:06 | -22.98688 | -45.89613 | 11332 ft | 322 kts | 312° |
| 2026-05-05 23:06 | -22.97607 | -45.91775 | 11324 ft | 330 kts | 283° |
| 2026-05-05 23:06 | -22.97215 | -45.94221 | 11321 ft | 331 kts | 278° |
| 2026-05-05 23:06 | -22.96864 | -45.96633 | 11256 ft | 318 kts | 279° |
| 2026-05-05 23:07 | -22.96524 | -45.98945 | 11215 ft | 302 kts | 278° |
| 2026-05-05 23:07 | -22.96175 | -46.01305 | 11316 ft | 333 kts | 279° |
| 2026-05-05 23:07 | -22.95804 | -46.03813 | 11930 ft | 344 kts | 279° |
| 2026-05-05 23:07 | -22.95427 | -46.06347 | 13024 ft | 337 kts | 279° |
| 2026-05-05 23:08 | -22.95108 | -46.08485 | 15462 ft | 275 kts | 278° |
| 2026-05-05 23:08 | -22.94805 | -46.10529 | 15979 ft | 289 kts | 278° |
| 2026-05-05 23:08 | -22.94467 | -46.12804 | 15990 ft | 321 kts | 278° |
| 2026-05-05 23:08 | -22.94095 | -46.15297 | 16097 ft | 348 kts | 278° |
| 2026-05-05 23:09 | -22.93697 | -46.17964 | 16563 ft | 362 kts | 278° |
| 2026-05-05 23:09 | -22.93298 | -46.20632 | 17313 ft | 364 kts | 278° |
| 2026-05-05 23:09 | -22.92819 | -46.23318 | 18187 ft | 363 kts | 288° |
| 2026-05-05 23:09 | -22.91808 | -46.25803 | 19028 ft | 362 kts | 294° |
| 2026-05-05 23:10 | -22.90713 | -46.28273 | 19803 ft | 364 kts | 294° |
| 2026-05-05 23:10 | -22.89608 | -46.30761 | 20502 ft | 366 kts | 294° |
| 2026-05-05 23:10 | -22.88510 | -46.33230 | 21146 ft | 370 kts | 293° |
| 2026-05-05 23:10 | -22.87383 | -46.35763 | 21784 ft | 373 kts | 293° |
| 2026-05-05 23:11 | -22.86256 | -46.38292 | 22407 ft | 377 kts | 293° |
| 2026-05-05 23:11 | -22.85119 | -46.40845 | 23025 ft | 380 kts | 293° |
| 2026-05-05 23:11 | -22.83973 | -46.43415 | 23629 ft | 383 kts | 293° |
| 2026-05-05 23:11 | -22.82809 | -46.46025 | 24199 ft | 387 kts | 293° |
| 2026-05-05 23:12 | -22.81624 | -46.48679 | 24759 ft | 391 kts | 292° |
| 2026-05-05 23:12 | -22.80429 | -46.51356 | 25322 ft | 394 kts | 292° |
| 2026-05-05 23:12 | -22.79230 | -46.54038 | 25879 ft | 397 kts | 292° |
| 2026-05-05 23:12 | -22.78030 | -46.56722 | 26413 ft | 400 kts | 292° |
| 2026-05-05 23:13 | -22.76819 | -46.59430 | 26945 ft | 403 kts | 292° |
| 2026-05-05 23:13 | -22.76264 | -46.60670 | 27188 ft | 404 kts | 291° |
| 2026-05-05 23:13 | -22.75030 | -46.63427 | 27700 ft | 407 kts | 291° |
| 2026-05-05 23:13 | -22.73796 | -46.66180 | 28212 ft | 410 kts | 291° |
| 2026-05-05 23:14 | -22.72555 | -46.68950 | 28699 ft | 413 kts | 291° |
| 2026-05-05 23:14 | -22.71288 | -46.71777 | 29177 ft | 416 kts | 291° |
| 2026-05-05 23:14 | -22.70027 | -46.74586 | 29650 ft | 418 kts | 291° |
| 2026-05-05 23:14 | -22.68748 | -46.77436 | 30124 ft | 421 kts | 291° |
| 2026-05-05 23:15 | -22.67488 | -46.80241 | 30575 ft | 423 kts | 291° |
| 2026-05-05 23:15 | -22.66198 | -46.83110 | 31037 ft | 424 kts | 291° |
| 2026-05-05 23:15 | -22.64896 | -46.86005 | 31472 ft | 427 kts | 291° |
| 2026-05-05 23:15 | -22.63586 | -46.88916 | 31860 ft | 429 kts | 291° |
| 2026-05-05 23:16 | -22.62279 | -46.91820 | 32254 ft | 432 kts | 291° |
| 2026-05-05 23:16 | -22.60967 | -46.94731 | 32681 ft | 433 kts | 290° |
| 2026-05-05 23:16 | -22.59653 | -46.97644 | 33164 ft | 433 kts | 290° |
| 2026-05-05 23:16 | -22.58262 | -47.00534 | 33840 ft | 432 kts | 296° |
| 2026-05-05 23:17 | -22.56475 | -47.03146 | 34487 ft | 436 kts | 305° |
| 2026-05-05 23:17 | -22.54264 | -47.05427 | 35035 ft | 443 kts | 314° |
| 2026-05-05 23:17 | -22.51756 | -47.07393 | 35489 ft | 448 kts | 320° |
| 2026-05-05 23:17 | -22.48976 | -47.09032 | 35890 ft | 458 kts | 329° |
| 2026-05-05 23:18 | -22.45954 | -47.10183 | 36171 ft | 470 kts | 339° |
| 2026-05-05 23:18 | -22.42690 | -47.10822 | 36491 ft | 481 kts | 349° |
| 2026-05-05 23:18 | -22.39307 | -47.10901 | 36864 ft | 488 kts | 358° |
| 2026-05-05 23:18 | -22.35904 | -47.10865 | 37152 ft | 486 kts | 349° |
| 2026-05-05 23:19 | -22.32546 | -47.11283 | 37482 ft | 484 kts | 346° |
| 2026-05-05 23:19 | -22.29208 | -47.11788 | 37770 ft | 486 kts | 345° |
| 2026-05-05 23:19 | -22.25855 | -47.12312 | 38039 ft | 488 kts | 345° |
| 2026-05-05 23:19 | -22.22458 | -47.12848 | 38221 ft | 490 kts | 344° |
| 2026-05-05 23:20 | -22.15581 | -47.13934 | 38238 ft | 507 kts | 345° |
| 2026-05-05 23:20 | -22.08499 | -47.15048 | 38226 ft | 514 kts | 345° |
| 2026-05-05 23:21 | -22.01408 | -47.16165 | 38225 ft | 514 kts | 345° |
| 2026-05-05 23:21 | -21.94323 | -47.17280 | 38231 ft | 515 kts | 345° |
| 2026-05-05 23:22 | -21.87220 | -47.18396 | 38215 ft | 516 kts | 345° |
| 2026-05-05 23:22 | -21.80108 | -47.19513 | 38218 ft | 513 kts | 345° |
| 2026-05-05 23:23 | -21.72966 | -47.20485 | 38229 ft | 514 kts | 346° |
| 2026-05-05 23:23 | -21.65857 | -47.21418 | 38235 ft | 517 kts | 346° |
| 2026-05-05 23:24 | -21.58659 | -47.22364 | 38234 ft | 518 kts | 347° |
| 2026-05-05 23:24 | -21.51511 | -47.23302 | 38234 ft | 516 kts | 347° |
| 2026-05-05 23:25 | -21.44365 | -47.24262 | 38248 ft | 513 kts | 345° |
| 2026-05-05 23:25 | -21.37277 | -47.25370 | 38268 ft | 514 kts | 345° |
| 2026-05-05 23:26 | -21.30177 | -47.26463 | 38271 ft | 517 kts | 345° |
| 2026-05-05 23:26 | -21.23124 | -47.27545 | 38282 ft | 514 kts | 345° |
| 2026-05-05 23:27 | -21.15969 | -47.28643 | 38278 ft | 514 kts | 345° |
| 2026-05-05 23:27 | -21.08891 | -47.29729 | 38271 ft | 517 kts | 346° |
| 2026-05-05 23:28 | -21.01751 | -47.30822 | 38267 ft | 514 kts | 345° |
| 2026-05-05 23:28 | -20.94665 | -47.31907 | 38272 ft | 520 kts | 345° |
| 2026-05-05 23:29 | -20.87504 | -47.33000 | 38256 ft | 515 kts | 345° |
| 2026-05-05 23:29 | -20.80435 | -47.34079 | 38262 ft | 514 kts | 345° |
| 2026-05-05 23:30 | -20.73312 | -47.35166 | 38258 ft | 516 kts | 345° |
| 2026-05-05 23:30 | -20.66241 | -47.36243 | 38270 ft | 516 kts | 345° |
| 2026-05-05 23:31 | -20.59122 | -47.37327 | 38271 ft | 515 kts | 345° |
| 2026-05-05 23:31 | -20.52012 | -47.38408 | 38280 ft | 513 kts | 345° |
| 2026-05-05 23:32 | -20.44929 | -47.39485 | 38283 ft | 513 kts | 345° |
| 2026-05-05 23:32 | -20.37814 | -47.40566 | 38277 ft | 516 kts | 345° |
| 2026-05-05 23:33 | -20.30767 | -47.41635 | 38283 ft | 514 kts | 346° |
| 2026-05-05 23:33 | -20.23642 | -47.42715 | 38279 ft | 516 kts | 346° |
| 2026-05-05 23:34 | -20.16565 | -47.43785 | 38274 ft | 512 kts | 345° |
| 2026-05-05 23:34 | -20.09483 | -47.44856 | 38267 ft | 513 kts | 346° |
| 2026-05-05 23:35 | -20.02362 | -47.45932 | 38265 ft | 513 kts | 345° |
| 2026-05-05 23:35 | -19.95312 | -47.46996 | 38257 ft | 511 kts | 345° |
| 2026-05-05 23:36 | -19.88255 | -47.48061 | 38251 ft | 512 kts | 345° |
| 2026-05-05 23:36 | -19.81197 | -47.49126 | 38251 ft | 511 kts | 345° |
| 2026-05-05 23:37 | -19.74127 | -47.50191 | 38256 ft | 513 kts | 346° |
| 2026-05-05 23:37 | -19.67049 | -47.51255 | 38263 ft | 514 kts | 345° |
| 2026-05-05 23:38 | -19.59965 | -47.52319 | 38267 ft | 509 kts | 345° |
| 2026-05-05 23:38 | -19.52913 | -47.53379 | 38271 ft | 511 kts | 345° |
| 2026-05-05 23:39 | -19.45889 | -47.54433 | 38267 ft | 511 kts | 346° |
| 2026-05-05 23:39 | -19.38799 | -47.55496 | 38276 ft | 512 kts | 346° |
| 2026-05-05 23:40 | -19.31768 | -47.56548 | 38278 ft | 511 kts | 345° |
| 2026-05-05 23:40 | -19.24755 | -47.57599 | 38280 ft | 510 kts | 345° |
| 2026-05-05 23:41 | -19.17720 | -47.58650 | 38273 ft | 508 kts | 345° |
| 2026-05-05 23:41 | -19.10669 | -47.59704 | 38283 ft | 511 kts | 346° |
| 2026-05-05 23:42 | -19.03639 | -47.60753 | 38280 ft | 509 kts | 345° |
| 2026-05-05 23:42 | -18.96624 | -47.61799 | 38281 ft | 510 kts | 345° |
| 2026-05-05 23:43 | -18.89613 | -47.62843 | 38281 ft | 508 kts | 345° |
| 2026-05-05 23:43 | -18.82570 | -47.63892 | 38265 ft | 508 kts | 345° |
| 2026-05-05 23:44 | -18.75548 | -47.64937 | 38264 ft | 509 kts | 345° |
| 2026-05-05 23:44 | -18.68544 | -47.65978 | 38268 ft | 509 kts | 346° |
| 2026-05-05 23:45 | -18.61486 | -47.67025 | 38253 ft | 506 kts | 345° |
| 2026-05-05 23:45 | -18.54495 | -47.68053 | 38240 ft | 506 kts | 346° |
| 2026-05-05 23:46 | -18.47506 | -47.69078 | 38233 ft | 506 kts | 346° |
| 2026-05-05 23:46 | -18.40492 | -47.70106 | 38232 ft | 505 kts | 346° |
| 2026-05-05 23:47 | -18.33536 | -47.71125 | 38232 ft | 507 kts | 346° |
| 2026-05-05 23:47 | -18.26584 | -47.72221 | 38230 ft | 504 kts | 345° |
| 2026-05-05 23:48 | -18.19661 | -47.73385 | 38235 ft | 503 kts | 345° |
| 2026-05-05 23:48 | -18.12738 | -47.74545 | 38235 ft | 504 kts | 345° |
| 2026-05-05 23:49 | -18.05813 | -47.75704 | 38232 ft | 502 kts | 344° |
| 2026-05-05 23:49 | -17.98853 | -47.76869 | 38237 ft | 502 kts | 345° |
| 2026-05-05 23:50 | -17.91939 | -47.78024 | 38246 ft | 501 kts | 345° |
| 2026-05-05 23:50 | -17.85024 | -47.79180 | 38242 ft | 503 kts | 345° |
| 2026-05-05 23:51 | -17.78486 | -47.80271 | 38247 ft | 502 kts | 345° |
| 2026-05-05 23:51 | -17.71594 | -47.81421 | 38247 ft | 501 kts | 345° |
| 2026-05-05 23:52 | -17.64667 | -47.82576 | 38492 ft | 505 kts | 345° |
| 2026-05-05 23:52 | -17.61243 | -47.83145 | 38998 ft | 502 kts | 345° |
| 2026-05-05 23:52 | -17.57801 | -47.83718 | 39577 ft | 497 kts | 345° |
| 2026-05-05 23:53 | -17.54400 | -47.84284 | 40146 ft | 492 kts | 345° |
| 2026-05-05 23:53 | -17.50994 | -47.84851 | 40221 ft | 491 kts | 345° |
| 2026-05-05 23:53 | -17.44253 | -47.85973 | 40257 ft | 493 kts | 345° |
| 2026-05-05 23:54 | -17.37482 | -47.87098 | 40256 ft | 493 kts | 345° |
| 2026-05-05 23:54 | -17.30685 | -47.88226 | 40259 ft | 493 kts | 345° |
| 2026-05-05 23:55 | -17.23886 | -47.89354 | 40259 ft | 494 kts | 345° |
| 2026-05-05 23:55 | -17.17101 | -47.90478 | 40251 ft | 493 kts | 345° |
| 2026-05-05 23:56 | -17.10301 | -47.91605 | 40248 ft | 493 kts | 345° |
| 2026-05-05 23:56 | -17.03549 | -47.92723 | 40242 ft | 492 kts | 345° |
| 2026-05-05 23:57 | -16.96764 | -47.93845 | 40233 ft | 490 kts | 345° |
| 2026-05-05 23:57 | -16.90041 | -47.94957 | 40237 ft | 492 kts | 345° |
| 2026-05-05 23:58 | -16.83279 | -47.96073 | 40221 ft | 489 kts | 345° |
| 2026-05-05 23:58 | -16.76563 | -47.97182 | 40225 ft | 489 kts | 345° |
| 2026-05-05 23:59 | -16.69815 | -47.98294 | 40226 ft | 490 kts | 345° |
| 2026-05-05 23:59 | -16.63082 | -47.99404 | 40228 ft | 489 kts | 346° |
| 2026-05-06 00:00 | -16.56334 | -48.00516 | 40234 ft | 490 kts | 346° |
| 2026-05-06 00:00 | -16.49604 | -48.01623 | 40239 ft | 491 kts | 345° |
| 2026-05-06 00:01 | -16.42848 | -48.02734 | 40236 ft | 490 kts | 346° |
| 2026-05-06 00:01 | -16.36069 | -48.03848 | 40240 ft | 490 kts | 346° |
| 2026-05-06 00:02 | -16.29326 | -48.04956 | 40242 ft | 489 kts | 346° |
| 2026-05-06 00:02 | -16.22609 | -48.06059 | 40245 ft | 487 kts | 346° |
| 2026-05-06 00:03 | -16.15904 | -48.07158 | 40262 ft | 489 kts | 345° |
| 2026-05-06 00:03 | -16.09188 | -48.08259 | 40272 ft | 489 kts | 345° |
| 2026-05-06 00:04 | -16.02443 | -48.09364 | 40283 ft | 488 kts | 345° |
| 2026-05-06 00:04 | -15.95726 | -48.10463 | 40294 ft | 489 kts | 345° |
| 2026-05-06 00:05 | -15.85648 | -48.12112 | 40280 ft | 488 kts | 346° |
| 2026-05-06 00:06 | -15.78992 | -48.13199 | 40270 ft | 486 kts | 346° |
| 2026-05-06 00:06 | -15.72272 | -48.14296 | 40268 ft | 486 kts | 346° |
| 2026-05-06 00:07 | -15.64465 | -48.15570 | 40252 ft | 484 kts | 346° |
| 2026-05-06 00:07 | -15.58887 | -48.16479 | 40242 ft | 484 kts | 346° |
| 2026-05-06 00:08 | -15.52247 | -48.17561 | 40233 ft | 484 kts | 346° |
| 2026-05-06 00:08 | -15.45506 | -48.18222 | 40239 ft | 488 kts | 354° |
| 2026-05-06 00:09 | -15.38731 | -48.18431 | 40224 ft | 488 kts | 354° |
| 2026-05-06 00:09 | -15.31906 | -48.18646 | 40225 ft | 489 kts | 354° |
| 2026-05-06 00:10 | -15.25111 | -48.18859 | 40218 ft | 488 kts | 354° |
| 2026-05-06 00:10 | -15.18323 | -48.19073 | 40220 ft | 488 kts | 354° |
| 2026-05-06 00:11 | -15.11521 | -48.19286 | 40226 ft | 486 kts | 354° |
| 2026-05-06 00:11 | -15.04749 | -48.19498 | 40228 ft | 485 kts | 354° |
| 2026-05-06 00:12 | -14.97997 | -48.19710 | 40228 ft | 485 kts | 354° |
| 2026-05-06 00:12 | -14.91276 | -48.19918 | 40232 ft | 485 kts | 354° |
| 2026-05-06 00:13 | -14.84529 | -48.20106 | 40228 ft | 483 kts | 354° |
| 2026-05-06 00:13 | -14.77778 | -48.20295 | 40230 ft | 484 kts | 354° |
| 2026-05-06 00:14 | -14.71027 | -48.20484 | 40229 ft | 485 kts | 354° |
| 2026-05-06 00:14 | -14.64257 | -48.20672 | 40219 ft | 484 kts | 354° |
| 2026-05-06 00:15 | -14.57555 | -48.20860 | 40212 ft | 484 kts | 354° |
| 2026-05-06 00:15 | -14.50790 | -48.21048 | 40200 ft | 482 kts | 354° |
| 2026-05-06 00:16 | -14.44068 | -48.21236 | 40184 ft | 484 kts | 354° |
| 2026-05-06 00:16 | -14.37357 | -48.21423 | 40165 ft | 484 kts | 354° |
| 2026-05-06 00:17 | -14.30617 | -48.21611 | 40143 ft | 482 kts | 354° |
| 2026-05-06 00:17 | -14.23919 | -48.21797 | 40123 ft | 483 kts | 354° |
| 2026-05-06 00:18 | -14.17195 | -48.21984 | 40118 ft | 481 kts | 354° |
| 2026-05-06 00:18 | -14.10572 | -48.22168 | 40113 ft | 482 kts | 354° |
| 2026-05-06 00:19 | -14.03872 | -48.22354 | 40108 ft | 481 kts | 354° |
| 2026-05-06 00:19 | -13.97144 | -48.22541 | 40109 ft | 480 kts | 354° |
| 2026-05-06 00:20 | -13.90467 | -48.22726 | 40110 ft | 480 kts | 354° |
| 2026-05-06 00:20 | -13.83791 | -48.22911 | 40099 ft | 480 kts | 354° |
| 2026-05-06 00:21 | -13.77106 | -48.23097 | 40099 ft | 480 kts | 354° |
| 2026-05-06 00:21 | -13.70408 | -48.23282 | 40100 ft | 480 kts | 354° |
| 2026-05-06 00:22 | -13.63736 | -48.23466 | 40098 ft | 479 kts | 354° |
| 2026-05-06 00:22 | -13.57059 | -48.23651 | 40096 ft | 478 kts | 354° |
| 2026-05-06 00:23 | -13.50367 | -48.23837 | 40102 ft | 478 kts | 354° |
| 2026-05-06 00:23 | -13.43745 | -48.24020 | 40094 ft | 477 kts | 354° |
| 2026-05-06 00:24 | -13.37051 | -48.24204 | 40095 ft | 477 kts | 354° |
| 2026-05-06 00:24 | -13.30414 | -48.24387 | 40093 ft | 477 kts | 354° |
| 2026-05-06 00:25 | -13.23791 | -48.24570 | 40089 ft | 477 kts | 354° |
| 2026-05-06 00:25 | -13.17105 | -48.24755 | 40089 ft | 476 kts | 354° |
| 2026-05-06 00:26 | -13.10499 | -48.24937 | 40085 ft | 476 kts | 354° |
| 2026-05-06 00:26 | -13.03857 | -48.25119 | 40086 ft | 475 kts | 354° |
| 2026-05-06 00:27 | -12.97249 | -48.25301 | 40090 ft | 474 kts | 354° |
| 2026-05-06 00:27 | -12.90645 | -48.25483 | 40084 ft | 474 kts | 354° |
| 2026-05-06 00:28 | -12.84042 | -48.25665 | 40079 ft | 474 kts | 354° |
| 2026-05-06 00:28 | -12.77412 | -48.25847 | 40073 ft | 474 kts | 354° |
| 2026-05-06 00:29 | -12.70833 | -48.26028 | 40072 ft | 474 kts | 354° |
| 2026-05-06 00:29 | -12.64214 | -48.26210 | 40063 ft | 473 kts | 354° |
| 2026-05-06 00:30 | -12.57603 | -48.26391 | 40071 ft | 473 kts | 354° |
| 2026-05-06 00:30 | -12.51020 | -48.26572 | 40074 ft | 472 kts | 354° |
| 2026-05-06 00:31 | -12.44451 | -48.26752 | 40075 ft | 472 kts | 354° |
| 2026-05-06 00:31 | -12.37883 | -48.26931 | 40069 ft | 471 kts | 354° |
| 2026-05-06 00:32 | -12.31319 | -48.27110 | 40073 ft | 471 kts | 354° |
| 2026-05-06 00:32 | -12.24764 | -48.27288 | 40069 ft | 470 kts | 354° |
| 2026-05-06 00:33 | -12.18231 | -48.27466 | 40060 ft | 469 kts | 354° |
| 2026-05-06 00:33 | -12.11670 | -48.27645 | 40051 ft | 469 kts | 354° |
| 2026-05-06 00:34 | -12.05127 | -48.27823 | 40060 ft | 470 kts | 354° |
| 2026-05-06 00:34 | -11.98561 | -48.28001 | 40052 ft | 468 kts | 354° |
| 2026-05-06 00:35 | -11.92062 | -48.28178 | 40052 ft | 468 kts | 355° |
| 2026-05-06 00:35 | -11.85515 | -48.28355 | 40045 ft | 468 kts | 354° |
| 2026-05-06 00:36 | -11.78993 | -48.28532 | 40045 ft | 468 kts | 354° |
| 2026-05-06 00:36 | -11.72441 | -48.28710 | 40047 ft | 469 kts | 354° |
| 2026-05-06 00:37 | -11.65919 | -48.28889 | 40046 ft | 469 kts | 355° |
| 2026-05-06 00:37 | -11.59402 | -48.29067 | 40040 ft | 467 kts | 354° |
| 2026-05-06 00:38 | -11.52887 | -48.29246 | 40041 ft | 468 kts | 355° |
| 2026-05-06 00:38 | -11.46402 | -48.29425 | 40038 ft | 467 kts | 355° |
| 2026-05-06 00:39 | -11.39893 | -48.29603 | 40033 ft | 467 kts | 355° |
| 2026-05-06 00:39 | -11.33395 | -48.29782 | 40033 ft | 466 kts | 355° |
| 2026-05-06 00:40 | -11.26874 | -48.30031 | 40035 ft | 465 kts | 352° |
| 2026-05-06 00:40 | -11.20419 | -48.30465 | 40035 ft | 465 kts | 353° |
| 2026-05-06 00:41 | -11.13933 | -48.30890 | 40032 ft | 465 kts | 353° |
| 2026-05-06 00:41 | -11.07439 | -48.31315 | 40031 ft | 465 kts | 353° |
| 2026-05-06 00:42 | -11.00969 | -48.31738 | 40031 ft | 465 kts | 353° |
| 2026-05-06 00:42 | -10.94520 | -48.32149 | 40031 ft | 465 kts | 353° |
| 2026-05-06 00:43 | -10.88047 | -48.32512 | 40030 ft | 465 kts | 353° |
| 2026-05-06 00:43 | -10.81591 | -48.32876 | 40033 ft | 465 kts | 353° |
| 2026-05-06 00:44 | -10.75118 | -48.33241 | 40032 ft | 466 kts | 353° |
| 2026-05-06 00:44 | -10.68614 | -48.33607 | 40030 ft | 464 kts | 354° |
| 2026-05-06 00:45 | -10.62167 | -48.33970 | 40031 ft | 465 kts | 353° |
| 2026-05-06 00:45 | -10.55705 | -48.34334 | 40032 ft | 466 kts | 354° |
| 2026-05-06 00:46 | -10.49203 | -48.34700 | 40033 ft | 466 kts | 354° |
| 2026-05-06 00:46 | -10.42730 | -48.35064 | 40031 ft | 464 kts | 354° |
| 2026-05-06 00:47 | -10.36257 | -48.35448 | 40025 ft | 464 kts | 351° |
| 2026-05-06 00:47 | -10.30085 | -48.37102 | 40034 ft | 456 kts | 332° |
| 2026-05-06 00:48 | -10.24299 | -48.39789 | 40025 ft | 456 kts | 332° |
| 2026-05-06 00:48 | -10.18529 | -48.42435 | 40024 ft | 456 kts | 332° |
| 2026-05-06 00:49 | -10.12742 | -48.45084 | 40022 ft | 457 kts | 333° |
| 2026-05-06 00:49 | -10.06919 | -48.47749 | 40021 ft | 457 kts | 332° |
| 2026-05-06 00:50 | -10.01131 | -48.50396 | 40020 ft | 457 kts | 332° |
| 2026-05-06 00:50 | -9.95325 | -48.53051 | 40019 ft | 457 kts | 332° |
| 2026-05-06 00:51 | -9.89525 | -48.55702 | 40019 ft | 456 kts | 333° |
| 2026-05-06 00:51 | -9.83736 | -48.58348 | 40017 ft | 456 kts | 333° |
| 2026-05-06 00:52 | -9.77909 | -48.61008 | 40018 ft | 457 kts | 332° |
| 2026-05-06 00:52 | -9.72104 | -48.63658 | 40020 ft | 456 kts | 333° |
| 2026-05-06 00:53 | -9.66402 | -48.66398 | 40031 ft | 455 kts | 328° |
| 2026-05-06 00:53 | -9.60799 | -48.69430 | 40028 ft | 455 kts | 329° |
| 2026-05-06 00:54 | -9.55173 | -48.72446 | 40033 ft | 455 kts | 329° |
| 2026-05-06 00:54 | -9.49570 | -48.75445 | 40034 ft | 454 kts | 329° |
| 2026-05-06 00:55 | -9.44001 | -48.78425 | 40035 ft | 454 kts | 329° |
| 2026-05-06 00:55 | -9.38374 | -48.81435 | 40034 ft | 454 kts | 329° |
| 2026-05-06 00:56 | -9.32792 | -48.84420 | 40032 ft | 455 kts | 329° |
| 2026-05-06 00:56 | -9.27205 | -48.87406 | 40030 ft | 455 kts | 329° |
| 2026-05-06 00:57 | -9.21577 | -48.90414 | 40028 ft | 455 kts | 329° |
| 2026-05-06 00:57 | -9.15977 | -48.93397 | 40021 ft | 456 kts | 330° |
| 2026-05-06 00:58 | -9.10272 | -48.96261 | 40029 ft | 456 kts | 331° |
| 2026-05-06 00:58 | -9.04581 | -48.99123 | 40023 ft | 456 kts | 331° |
| 2026-05-06 00:59 | -8.98924 | -49.01969 | 40023 ft | 455 kts | 331° |
| 2026-05-06 00:59 | -8.93245 | -49.04824 | 40016 ft | 455 kts | 331° |
| 2026-05-06 01:00 | -8.87573 | -49.07675 | 40007 ft | 455 kts | 331° |
| 2026-05-06 01:00 | -8.81888 | -49.10531 | 40005 ft | 454 kts | 330° |
| 2026-05-06 01:01 | -8.76198 | -49.13390 | 40002 ft | 455 kts | 331° |
| 2026-05-06 01:01 | -8.70534 | -49.16233 | 39998 ft | 455 kts | 331° |
| 2026-05-06 01:02 | -8.64837 | -49.19093 | 39994 ft | 456 kts | 331° |
| 2026-05-06 01:02 | -8.59169 | -49.21936 | 39993 ft | 456 kts | 330° |
| 2026-05-06 01:03 | -8.53486 | -49.24788 | 39989 ft | 455 kts | 331° |
| 2026-05-06 01:03 | -8.47817 | -49.27630 | 39987 ft | 454 kts | 331° |
| 2026-05-06 01:04 | -8.42131 | -49.30480 | 39986 ft | 454 kts | 331° |
| 2026-05-06 01:04 | -8.36505 | -49.33299 | 39986 ft | 454 kts | 331° |
| 2026-05-06 01:05 | -8.30830 | -49.36142 | 39986 ft | 454 kts | 331° |
| 2026-05-06 01:05 | -8.25151 | -49.38985 | 39987 ft | 455 kts | 331° |
| 2026-05-06 01:06 | -8.19461 | -49.41833 | 39987 ft | 455 kts | 331° |
| 2026-05-06 01:06 | -8.13801 | -49.44666 | 39987 ft | 455 kts | 331° |
| 2026-05-06 01:07 | -8.08133 | -49.47532 | 39988 ft | 453 kts | 330° |
| 2026-05-06 01:07 | -8.02492 | -49.50404 | 39988 ft | 453 kts | 330° |
| 2026-05-06 01:08 | -7.96867 | -49.53265 | 39988 ft | 453 kts | 330° |
| 2026-05-06 01:08 | -7.91221 | -49.56137 | 39988 ft | 454 kts | 330° |
| 2026-05-06 01:09 | -7.85587 | -49.59002 | 39987 ft | 454 kts | 330° |
| 2026-05-06 01:09 | -7.79932 | -49.61876 | 39986 ft | 455 kts | 330° |
| 2026-05-06 01:10 | -7.74250 | -49.64763 | 39986 ft | 454 kts | 330° |
| 2026-05-06 01:10 | -7.68610 | -49.67629 | 39991 ft | 454 kts | 331° |
| 2026-05-06 01:11 | -7.62975 | -49.70490 | 39992 ft | 453 kts | 331° |
| 2026-05-06 01:11 | -7.57343 | -49.73337 | 39992 ft | 453 kts | 331° |
| 2026-05-06 01:12 | -7.51672 | -49.76174 | 39994 ft | 452 kts | 331° |
| 2026-05-06 01:12 | -7.46031 | -49.78996 | 39998 ft | 453 kts | 331° |
| 2026-05-06 01:13 | -7.40375 | -49.81825 | 40001 ft | 453 kts | 331° |
| 2026-05-06 01:13 | -7.34730 | -49.84648 | 40006 ft | 453 kts | 331° |
| 2026-05-06 01:14 | -7.26226 | -49.88899 | 40003 ft | 453 kts | 332° |
| 2026-05-06 01:14 | -7.20590 | -49.91715 | 39999 ft | 453 kts | 332° |
| 2026-05-06 01:15 | -7.14931 | -49.94541 | 40000 ft | 453 kts | 332° |
| 2026-05-06 01:15 | -7.09296 | -49.97356 | 39999 ft | 452 kts | 332° |
| 2026-05-06 01:16 | -7.03633 | -50.00183 | 40006 ft | 453 kts | 332° |
| 2026-05-06 01:16 | -6.97969 | -50.03010 | 40011 ft | 453 kts | 332° |
| 2026-05-06 01:17 | -6.92328 | -50.05825 | 40020 ft | 453 kts | 332° |
| 2026-05-06 01:17 | -6.86695 | -50.08636 | 40023 ft | 453 kts | 332° |
| 2026-05-06 01:18 | -6.81013 | -50.11469 | 40016 ft | 453 kts | 332° |
| 2026-05-06 01:18 | -6.75385 | -50.14275 | 40014 ft | 453 kts | 332° |
| 2026-05-06 01:19 | -6.69732 | -50.17093 | 40012 ft | 454 kts | 332° |
| 2026-05-06 01:19 | -6.64044 | -50.19927 | 40008 ft | 453 kts | 332° |
| 2026-05-06 01:20 | -6.58409 | -50.22728 | 40014 ft | 453 kts | 332° |
| 2026-05-06 01:20 | -6.52727 | -50.25552 | 40015 ft | 453 kts | 332° |
| 2026-05-06 01:21 | -6.47079 | -50.28358 | 40018 ft | 453 kts | 332° |
| 2026-05-06 01:21 | -6.41435 | -50.31162 | 40021 ft | 453 kts | 332° |
| 2026-05-06 01:22 | -6.35783 | -50.33970 | 40029 ft | 453 kts | 332° |
| 2026-05-06 01:22 | -6.30130 | -50.36777 | 40037 ft | 453 kts | 332° |
| 2026-05-06 01:23 | -6.24463 | -50.39590 | 40046 ft | 453 kts | 332° |
| 2026-05-06 01:23 | -6.18815 | -50.42393 | 40047 ft | 453 kts | 332° |
| 2026-05-06 01:24 | -6.13125 | -50.45216 | 40044 ft | 452 kts | 332° |
| 2026-05-06 01:24 | -6.07502 | -50.48005 | 40032 ft | 452 kts | 332° |
| 2026-05-06 01:25 | -6.01846 | -50.50810 | 40016 ft | 452 kts | 332° |
| 2026-05-06 01:25 | -5.96182 | -50.53619 | 40009 ft | 452 kts | 332° |
| 2026-05-06 01:26 | -5.90567 | -50.56402 | 40010 ft | 453 kts | 332° |
| 2026-05-06 01:26 | -5.84882 | -50.59220 | 40011 ft | 453 kts | 332° |
| 2026-05-06 01:27 | -5.79238 | -50.62017 | 40014 ft | 452 kts | 332° |
| 2026-05-06 01:27 | -5.73640 | -50.64790 | 40016 ft | 445 kts | 332° |
| 2026-05-06 01:28 | -5.68082 | -50.67542 | 40025 ft | 444 kts | 333° |
| 2026-05-06 01:28 | -5.62523 | -50.70295 | 40030 ft | 444 kts | 333° |
| 2026-05-06 01:29 | -5.56982 | -50.73039 | 40028 ft | 443 kts | 333° |
| 2026-05-06 01:29 | -5.51474 | -50.75768 | 40011 ft | 431 kts | 333° |
| 2026-05-06 01:30 | -5.48845 | -50.77070 | 40003 ft | 412 kts | 333° |
| 2026-05-06 01:30 | -5.46312 | -50.78324 | 40003 ft | 399 kts | 333° |
| 2026-05-06 01:30 | -5.41289 | -50.80812 | 40039 ft | 409 kts | 333° |
| 2026-05-06 01:31 | -5.36080 | -50.83392 | 40033 ft | 422 kts | 333° |
| 2026-05-06 01:31 | -5.30764 | -50.86023 | 40026 ft | 423 kts | 333° |
| 2026-05-06 01:32 | -5.25459 | -50.88649 | 40020 ft | 427 kts | 333° |
| 2026-05-06 01:32 | -5.20134 | -50.91283 | 40018 ft | 426 kts | 333° |
| 2026-05-06 01:33 | -5.14803 | -50.93921 | 40017 ft | 427 kts | 334° |
| 2026-05-06 01:33 | -5.09439 | -50.96574 | 40017 ft | 427 kts | 333° |
| 2026-05-06 01:34 | -5.04111 | -50.99209 | 40020 ft | 427 kts | 333° |
| 2026-05-06 01:34 | -4.98781 | -51.01845 | 40020 ft | 428 kts | 333° |
| 2026-05-06 01:35 | -4.93397 | -51.04507 | 40018 ft | 428 kts | 333° |
| 2026-05-06 01:35 | -4.88060 | -51.07144 | 40023 ft | 429 kts | 334° |
| 2026-05-06 01:36 | -4.82690 | -51.09799 | 40029 ft | 427 kts | 334° |
| 2026-05-06 01:36 | -4.77380 | -51.12429 | 40033 ft | 427 kts | 334° |
| 2026-05-06 01:37 | -4.72053 | -51.15068 | 40031 ft | 428 kts | 333° |
| 2026-05-06 01:37 | -4.66718 | -51.17710 | 40027 ft | 427 kts | 333° |
| 2026-05-06 01:38 | -4.61350 | -51.20369 | 40023 ft | 426 kts | 333° |
| 2026-05-06 01:38 | -4.56050 | -51.22993 | 40022 ft | 426 kts | 334° |
| 2026-05-06 01:39 | -4.50738 | -51.25623 | 40018 ft | 426 kts | 334° |
| 2026-05-06 01:39 | -4.45388 | -51.28270 | 40016 ft | 427 kts | 334° |
| 2026-05-06 01:40 | -4.40050 | -51.30912 | 40016 ft | 426 kts | 334° |
| 2026-05-06 01:40 | -4.34691 | -51.33564 | 40017 ft | 426 kts | 334° |
| 2026-05-06 01:41 | -4.23974 | -51.38864 | 40017 ft | 426 kts | 334° |
| 2026-05-06 01:42 | -4.18657 | -51.41494 | 40016 ft | 426 kts | 334° |
| 2026-05-06 01:42 | -4.13322 | -51.44132 | 40016 ft | 426 kts | 334° |
| 2026-05-06 01:43 | -4.07978 | -51.46774 | 40017 ft | 427 kts | 334° |
| 2026-05-06 01:43 | -4.02667 | -51.49399 | 40017 ft | 426 kts | 334° |
| 2026-05-06 01:44 | -3.97337 | -51.52034 | 40016 ft | 427 kts | 334° |
| 2026-05-06 01:44 | -3.92005 | -51.54669 | 40015 ft | 426 kts | 334° |
| 2026-05-06 01:45 | -3.86643 | -51.57246 | 40018 ft | 426 kts | 335° |
| 2026-05-06 01:45 | -3.81317 | -51.59795 | 40018 ft | 426 kts | 335° |
| 2026-05-06 01:46 | -3.75946 | -51.62365 | 40015 ft | 426 kts | 335° |
| 2026-05-06 01:46 | -3.70586 | -51.64930 | 40013 ft | 426 kts | 335° |
| 2026-05-06 01:47 | -3.65217 | -51.67498 | 40007 ft | 426 kts | 335° |
| 2026-05-06 01:47 | -3.59870 | -51.70057 | 40007 ft | 427 kts | 335° |
| 2026-05-06 01:48 | -3.54517 | -51.72617 | 40005 ft | 426 kts | 335° |
| 2026-05-06 01:48 | -3.49166 | -51.75177 | 40003 ft | 427 kts | 335° |
| 2026-05-06 01:49 | -3.43805 | -51.77740 | 40003 ft | 427 kts | 335° |
| 2026-05-06 01:49 | -3.38417 | -51.80316 | 39998 ft | 426 kts | 335° |
| 2026-05-06 01:50 | -3.33096 | -51.82932 | 39997 ft | 426 kts | 334° |
| 2026-05-06 01:50 | -3.27793 | -51.85570 | 39997 ft | 426 kts | 334° |
| 2026-05-06 01:51 | -3.22457 | -51.88222 | 39998 ft | 427 kts | 334° |
| 2026-05-06 01:51 | -3.17107 | -51.90881 | 39996 ft | 428 kts | 334° |
| 2026-05-06 01:52 | -3.11747 | -51.93544 | 40005 ft | 438 kts | 334° |
| 2026-05-06 01:52 | -3.06177 | -51.96312 | 39995 ft | 445 kts | 334° |
| 2026-05-06 01:53 | -3.00638 | -51.99064 | 39990 ft | 443 kts | 334° |
| 2026-05-06 01:53 | -2.95133 | -52.01799 | 39991 ft | 445 kts | 334° |
| 2026-05-06 01:54 | -2.89561 | -52.04567 | 39987 ft | 445 kts | 334° |
| 2026-05-06 01:54 | -2.84009 | -52.07324 | 39991 ft | 447 kts | 334° |